Hong Kong, Hong Kong

04:00 AM HKT on Januari 31, 2015 (GMT +0800)
Tai O, Lantau Island | Change Station
CLOSE
Current Station
Personal Weather Stations
Location: Hong Kong, HKSAR
Elevation: 50 ft
Nearby Weather Stations

Elev 50 ft 22.25 °N, 113.87 °E | Updated 4 minutes ago

Scattered Clouds
Mendung Tidak Merata
58.3 °F
Feels Like 58.3 °F
N
0.0
Angin Variable Angin from Dari Selatan ke Tenggara
Gusts 0.0 mph

Siang Ini
High -- | Low -- °F
--% Chance of Precip.
Yesterday
High -- | Low -- °F
Precip. -- Inch
7:03 AM 6:11 PM
Waxing Gibbous, 84% visible
Tekanan 30.21 Inch
Jarak Pandang 5.0 Mil
Awan Few 1500 ft
Mendung Tidak Merata 2500 ft
Titik Embun 54 °F
Kelembaban 84%
Rainfall 0.00 Inch
Snow Depth Not available.
UV 0.0 out of 12
Pollen Not available.
Air Quality Not available.
Flu Activity Not available.
METAR VHHH 301930Z 04005KT 8000 FEW015 SCT025 16/11 Q1023 NOSIG

More Conditions Fewer Conditions

Tekanan 30.21 Inch
Jarak Pandang 5.0 Mil
Awan Few 1500 ft
Mendung Tidak Merata 2500 ft
Titik Embun 54 °F
Kelembaban 84%
Rainfall 0.00 Inch
Snow Depth Not available.
UV 0.0 out of 12
Pollen Not available.
Air Quality Not available.
Flu Activity Not available.
METAR VHHH 301930Z 04005KT 8000 FEW015 SCT025 16/11 Q1023 NOSIG

More Conditions Fewer Conditions

10-Day Weather Forecast

Almanac

Astronomi

Jan. 31, 2015 Rise Set
Actual Time
Civil Twilight
Nautical Twilight
Astronomical Twilight
Moon
Length Of Visible Light
Lama Satu Hari
Tomorrow will be .
, % of the Moon is Illuminated

Today's Extremes

Country Highs Country Lows

Community

WunderPhotos

Upload Photos

1,791,882 photos uploaded!

WunderBlogs® & News

Nearby

Air Quality

  Air Quality AQ Index Pollutant
Not available.

Snow Depth

Station Depth Elevation

Earthquake Activity

City Distance Mag. Time & Date
Minimum magnitude displayed is 2.5.

Coastal Water Temperatures

Lokasi Temperatur

Nearby Weather Stations